createdAt,value
2023-09-08T00:00:29.745Z,20.09
2023-09-08T00:01:29.760Z,20.09
2023-09-08T00:02:29.931Z,20.07
2023-09-08T00:03:29.757Z,20.01
2023-09-08T00:04:29.862Z,19.93
2023-09-08T00:05:30.000Z,19.90
2023-09-08T00:06:29.703Z,19.93
2023-09-08T00:07:29.715Z,19.98
2023-09-08T00:08:29.716Z,20.00
2023-09-08T00:09:29.640Z,20.01
2023-09-08T00:10:29.668Z,20.01
2023-09-08T00:11:29.759Z,19.97
2023-09-08T00:12:29.623Z,19.99
2023-09-08T00:13:29.816Z,20.00
2023-09-08T00:14:29.717Z,19.99
2023-09-08T00:15:29.674Z,19.99
2023-09-08T00:16:29.714Z,20.00
2023-09-08T00:17:29.596Z,19.99
2023-09-08T00:18:29.572Z,19.98
2023-09-08T00:19:29.583Z,19.87
2023-09-08T00:20:29.608Z,19.79
2023-09-08T00:21:29.534Z,19.79
2023-09-08T00:22:29.554Z,19.86
2023-09-08T00:23:29.528Z,19.93
2023-09-08T00:24:29.488Z,19.91
2023-09-08T00:25:29.454Z,19.86
2023-09-08T00:26:29.466Z,19.85
2023-09-08T00:27:29.487Z,19.83
2023-09-08T00:28:29.447Z,19.81
2023-09-08T00:29:29.507Z,19.84
2023-09-08T00:30:29.412Z,19.85
2023-09-08T00:31:29.404Z,19.84
2023-09-08T00:32:29.553Z,19.83
2023-09-08T00:33:29.541Z,19.79
2023-09-08T00:34:29.409Z,19.75
2023-09-08T00:35:29.415Z,19.73
2023-09-08T00:36:29.366Z,19.72
2023-09-08T00:37:29.339Z,19.68
2023-09-08T00:38:29.359Z,19.65
2023-09-08T00:39:29.313Z,19.66
2023-09-08T00:40:29.322Z,19.63
2023-09-08T00:41:29.403Z,19.62
2023-09-08T00:42:29.312Z,19.65
2023-09-08T00:43:29.298Z,19.68
2023-09-08T00:44:29.294Z,19.70
2023-09-08T00:45:29.336Z,19.73
2023-09-08T00:46:29.361Z,19.70
2023-09-08T00:47:29.316Z,19.66
2023-09-08T00:48:29.299Z,19.65
2023-09-08T00:49:29.231Z,19.69
2023-09-08T00:50:29.220Z,19.75
2023-09-08T00:51:29.184Z,19.73
2023-09-08T00:52:29.206Z,19.64
2023-09-08T00:53:29.183Z,19.63
2023-09-08T00:54:29.164Z,19.67
2023-09-08T00:55:29.210Z,19.68
2023-09-08T00:56:29.202Z,19.63
2023-09-08T00:57:29.167Z,19.54
2023-09-08T00:58:29.259Z,19.47
2023-09-08T00:59:29.123Z,19.47
2023-09-08T01:00:29.160Z,19.54
2023-09-08T01:01:29.112Z,19.59
2023-09-08T01:02:29.205Z,19.59
2023-09-08T01:03:29.126Z,19.62
2023-09-08T01:04:29.100Z,19.67
2023-09-08T01:05:29.123Z,19.61
2023-09-08T01:06:29.033Z,19.48
2023-09-08T01:07:29.039Z,19.41
2023-09-08T01:08:29.112Z,19.38
2023-09-08T01:09:29.105Z,19.28
2023-09-08T01:10:29.012Z,19.10
2023-09-08T01:11:28.986Z,18.98
2023-09-08T01:12:29.002Z,18.96
2023-09-08T01:13:28.953Z,19.03
2023-09-08T01:14:28.962Z,19.13
2023-09-08T01:15:28.935Z,19.11
2023-09-08T01:16:28.953Z,19.05
2023-09-08T01:17:28.944Z,19.07
2023-09-08T01:18:28.961Z,19.16
2023-09-08T01:19:28.948Z,19.25
2023-09-08T01:20:28.912Z,19.34
2023-09-08T01:21:28.890Z,19.43
2023-09-08T01:22:28.848Z,19.46
2023-09-08T01:23:29.003Z,19.42
2023-09-08T01:24:28.894Z,19.39
2023-09-08T01:25:28.862Z,19.33
2023-09-08T01:26:28.829Z,19.27
2023-09-08T01:27:28.813Z,19.29
2023-09-08T01:28:28.836Z,19.27
2023-09-08T01:29:28.810Z,19.20
2023-09-08T01:30:28.778Z,19.20
2023-09-08T01:31:28.858Z,19.17
2023-09-08T01:32:28.782Z,19.14
2023-09-08T01:33:28.731Z,19.17
2023-09-08T01:34:28.724Z,19.10
2023-09-08T01:35:28.733Z,19.02
2023-09-08T01:36:28.694Z,18.94
2023-09-08T01:37:28.697Z,18.87
2023-09-08T01:38:28.734Z,18.80
2023-09-08T01:39:28.667Z,18.78
2023-09-08T01:40:28.671Z,18.84
2023-09-08T01:41:28.640Z,18.88
2023-09-08T01:42:28.630Z,18.91
2023-09-08T01:43:28.662Z,18.94
2023-09-08T01:44:28.832Z,19.00
2023-09-08T01:45:28.689Z,19.08
2023-09-08T01:46:28.654Z,19.12
2023-09-08T01:47:28.588Z,19.07
2023-09-08T01:48:28.606Z,19.02
2023-09-08T01:49:28.568Z,19.00
2023-09-08T01:50:28.548Z,19.00
2023-09-08T01:51:28.554Z,19.01
2023-09-08T01:52:28.558Z,18.99
2023-09-08T01:53:28.571Z,18.91
2023-09-08T01:54:28.506Z,18.74
2023-09-08T01:55:28.512Z,18.54
2023-09-08T01:56:28.508Z,18.50
2023-09-08T01:57:28.465Z,18.61
2023-09-08T01:58:28.514Z,18.70
2023-09-08T01:59:28.440Z,18.77
2023-09-08T02:00:28.523Z,18.88
2023-09-08T02:01:28.479Z,18.98
2023-09-08T02:02:28.466Z,19.03
2023-09-08T02:03:28.432Z,19.02
2023-09-08T02:04:28.543Z,18.95
2023-09-08T02:05:28.508Z,18.91
2023-09-08T02:06:28.435Z,18.90
2023-09-08T02:07:28.474Z,18.84
2023-09-08T02:08:28.477Z,18.73
2023-09-08T02:09:28.398Z,18.64
2023-09-08T02:10:28.420Z,18.62
2023-09-08T02:11:28.324Z,18.70
2023-09-08T02:12:28.299Z,18.77
2023-09-08T02:13:28.307Z,18.78
2023-09-08T02:14:28.274Z,18.73
2023-09-08T02:15:28.301Z,18.62
2023-09-08T02:16:28.311Z,18.59
2023-09-08T02:17:28.261Z,18.66
2023-09-08T02:18:28.299Z,18.77
2023-09-08T02:19:28.318Z,18.82
2023-09-08T02:20:28.213Z,18.78
2023-09-08T02:21:28.221Z,18.77
2023-09-08T02:22:28.199Z,18.80
2023-09-08T02:23:28.191Z,18.81
2023-09-08T02:24:28.230Z,18.83
2023-09-08T02:25:28.182Z,18.83
2023-09-08T02:26:28.212Z,18.85
2023-09-08T02:27:28.146Z,18.91
2023-09-08T02:28:28.130Z,18.97
2023-09-08T02:29:28.136Z,18.95
2023-09-08T02:30:28.130Z,18.90
2023-09-08T02:31:28.095Z,18.85
2023-09-08T02:32:28.152Z,18.81
2023-09-08T02:33:28.154Z,18.79
2023-09-08T02:34:28.056Z,18.75
2023-09-08T02:35:28.103Z,18.74
2023-09-08T02:36:28.073Z,18.75
2023-09-08T02:37:28.026Z,18.73
2023-09-08T02:38:28.065Z,18.72
2023-09-08T02:39:28.195Z,18.72
2023-09-08T02:40:27.994Z,18.75
2023-09-08T02:41:28.024Z,18.69
2023-09-08T02:42:28.003Z,18.63
2023-09-08T02:43:27.966Z,18.62
2023-09-08T02:44:27.966Z,18.61
2023-09-08T02:45:27.969Z,18.61
2023-09-08T02:46:28.009Z,18.65
2023-09-08T02:47:27.948Z,18.66
2023-09-08T02:48:27.909Z,18.64
2023-09-08T02:49:27.902Z,18.60
2023-09-08T02:50:27.885Z,18.47
2023-09-08T02:51:27.896Z,18.38
2023-09-08T02:52:27.876Z,18.36
2023-09-08T02:53:27.867Z,18.40
2023-09-08T02:54:27.892Z,18.46
2023-09-08T02:55:27.849Z,18.48
2023-09-08T02:56:27.816Z,18.50
2023-09-08T02:57:27.810Z,18.51
2023-09-08T02:58:27.895Z,18.46
2023-09-08T02:59:27.800Z,18.42
2023-09-08T03:00:27.807Z,18.47
2023-09-08T03:01:27.841Z,18.51
2023-09-08T03:02:28.013Z,18.51
2023-09-08T03:03:27.800Z,18.47
2023-09-08T03:04:27.741Z,18.46
2023-09-08T03:05:27.733Z,18.47
2023-09-08T03:06:27.708Z,18.51
2023-09-08T03:07:27.745Z,18.46
2023-09-08T03:08:27.695Z,18.39
2023-09-08T03:09:27.680Z,18.31
2023-09-08T03:10:27.669Z,18.28
2023-09-08T03:11:27.658Z,18.33
2023-09-08T03:12:27.687Z,18.40
2023-09-08T03:13:27.646Z,18.45
2023-09-08T03:14:27.628Z,18.50
2023-09-08T03:15:27.640Z,18.55
2023-09-08T03:16:27.650Z,18.58
2023-09-08T03:17:27.629Z,18.59
2023-09-08T03:18:27.592Z,18.59
2023-09-08T03:19:27.582Z,18.58
2023-09-08T03:20:27.575Z,18.54
2023-09-08T03:21:27.576Z,18.49
2023-09-08T03:22:27.541Z,18.43
2023-09-08T03:23:27.627Z,18.40
2023-09-08T03:24:27.537Z,18.43
2023-09-08T03:25:27.518Z,18.45
2023-09-08T03:26:27.501Z,18.39
2023-09-08T03:27:27.505Z,18.25
2023-09-08T03:28:27.492Z,18.18
2023-09-08T03:29:27.460Z,18.18
2023-09-08T03:30:27.460Z,18.19
2023-09-08T03:31:27.602Z,18.20
2023-09-08T03:32:27.601Z,18.25
2023-09-08T03:33:27.523Z,18.31
2023-09-08T03:34:27.565Z,18.33
2023-09-08T03:35:27.407Z,18.30
2023-09-08T03:36:27.448Z,18.26
2023-09-08T03:37:27.400Z,18.20
2023-09-08T03:38:27.416Z,18.14
2023-09-08T03:39:27.361Z,18.17
2023-09-08T03:40:27.398Z,18.24
2023-09-08T03:41:27.345Z,18.27
2023-09-08T03:42:27.338Z,18.23
2023-09-08T03:43:27.324Z,18.21
2023-09-08T03:44:27.316Z,18.21
2023-09-08T03:45:27.296Z,18.12
2023-09-08T03:46:27.339Z,18.05
2023-09-08T03:47:27.351Z,18.02
2023-09-08T03:48:27.264Z,17.96
2023-09-08T03:49:27.262Z,17.88
2023-09-08T03:50:27.245Z,17.88
2023-09-08T03:51:27.259Z,17.97
2023-09-08T03:52:27.221Z,18.00
2023-09-08T03:53:27.289Z,17.99
2023-09-08T03:54:27.214Z,18.03
2023-09-08T03:55:27.211Z,18.11
2023-09-08T03:56:27.206Z,18.19
2023-09-08T03:57:27.171Z,18.27
2023-09-08T03:58:27.164Z,18.35
2023-09-08T03:59:27.187Z,18.42
2023-09-08T04:00:27.201Z,18.43
2023-09-08T04:01:27.138Z,18.41
2023-09-08T04:02:27.157Z,18.37
2023-09-08T04:03:27.257Z,18.34
2023-09-08T04:04:27.110Z,18.32
2023-09-08T04:05:27.142Z,18.31
2023-09-08T04:06:27.084Z,18.30
2023-09-08T04:07:27.073Z,18.22
2023-09-08T04:08:27.096Z,18.16
2023-09-08T04:09:27.046Z,18.15
2023-09-08T04:10:27.053Z,18.19
2023-09-08T04:11:27.048Z,18.23
2023-09-08T04:12:27.011Z,18.27
2023-09-08T04:13:27.000Z,18.33
2023-09-08T04:14:26.984Z,18.32
2023-09-08T04:15:27.007Z,18.29
2023-09-08T04:16:26.994Z,18.29
2023-09-08T04:17:26.937Z,18.28
2023-09-08T04:18:27.013Z,18.25
2023-09-08T04:19:26.937Z,18.25
2023-09-08T04:20:26.927Z,18.26
2023-09-08T04:21:26.955Z,18.22
2023-09-08T04:22:26.912Z,18.21
2023-09-08T04:23:26.929Z,18.17
2023-09-08T04:24:26.907Z,18.13
2023-09-08T04:25:26.911Z,18.11
2023-09-08T04:26:26.852Z,18.09
2023-09-08T04:27:26.879Z,18.08
2023-09-08T04:28:26.816Z,18.06
2023-09-08T04:29:26.827Z,18.06
2023-09-08T04:30:26.867Z,18.09
2023-09-08T04:31:26.819Z,18.10
2023-09-08T04:32:26.793Z,18.07
2023-09-08T04:33:26.824Z,18.03
2023-09-08T04:34:26.762Z,17.97
2023-09-08T04:35:26.760Z,17.93
2023-09-08T04:36:26.778Z,17.93
2023-09-08T04:37:26.736Z,17.91
2023-09-08T04:38:26.727Z,17.82
2023-09-08T04:39:26.789Z,17.76
2023-09-08T04:40:26.706Z,17.82
2023-09-08T04:41:26.694Z,17.92
2023-09-08T04:42:26.752Z,17.98
2023-09-08T04:43:26.672Z,17.99
2023-09-08T04:44:26.665Z,18.01
2023-09-08T04:45:26.679Z,18.03
2023-09-08T04:46:26.686Z,18.02
2023-09-08T04:47:26.625Z,18.01
2023-09-08T04:48:28.560Z,18.04
2023-09-08T04:49:26.632Z,18.08
2023-09-08T04:50:26.600Z,18.05
2023-09-08T04:51:26.592Z,17.99
2023-09-08T04:52:26.603Z,17.94
2023-09-08T04:53:26.577Z,17.91
2023-09-08T04:54:26.547Z,17.91
2023-09-08T04:55:26.568Z,17.93
2023-09-08T04:56:26.542Z,17.90
2023-09-08T04:57:26.546Z,17.84
2023-09-08T04:58:26.533Z,17.78
2023-09-08T04:59:26.572Z,17.78
2023-09-08T05:00:26.487Z,17.81
2023-09-08T05:01:26.513Z,17.85
2023-09-08T05:02:26.544Z,17.85
2023-09-08T05:03:26.550Z,17.76
2023-09-08T05:04:26.596Z,17.66
2023-09-08T05:05:26.467Z,17.62
2023-09-08T05:06:26.433Z,17.62
2023-09-08T05:07:26.441Z,17.63
2023-09-08T05:08:26.418Z,17.65
2023-09-08T05:09:26.421Z,17.71
2023-09-08T05:10:26.391Z,17.79
2023-09-08T05:11:26.442Z,17.88
2023-09-08T05:12:26.390Z,17.95
2023-09-08T05:13:31.357Z,17.96
2023-09-08T05:14:26.354Z,17.96
2023-09-08T05:15:26.384Z,17.98
2023-09-08T05:16:26.358Z,18.00
2023-09-08T05:17:26.312Z,17.91
2023-09-08T05:18:26.450Z,17.71
2023-09-08T05:19:26.334Z,17.49
2023-09-08T05:20:26.295Z,17.32
2023-09-08T05:21:26.312Z,17.20
2023-09-08T05:22:26.587Z,17.16
2023-09-08T05:23:26.286Z,17.21
2023-09-08T05:24:26.612Z,17.29
2023-09-08T05:25:27.432Z,17.38
2023-09-08T05:26:26.886Z,17.50
2023-09-08T05:27:26.933Z,17.59
2023-09-08T05:28:26.670Z,17.65
2023-09-08T05:29:26.221Z,17.70
2023-09-08T05:30:26.206Z,17.77
2023-09-08T05:31:26.233Z,17.82
2023-09-08T05:32:26.276Z,17.78
2023-09-08T05:33:26.278Z,17.67
2023-09-08T05:34:26.162Z,17.57
2023-09-08T05:35:26.147Z,17.46
2023-09-08T05:36:26.127Z,17.31
2023-09-08T05:37:26.126Z,17.17
2023-09-08T05:38:26.126Z,17.06
2023-09-08T05:39:26.077Z,17.00
2023-09-08T05:40:26.152Z,16.97
2023-09-08T05:41:26.109Z,16.97
2023-09-08T05:42:26.087Z,16.99
2023-09-08T05:43:26.129Z,17.00
2023-09-08T05:44:26.033Z,17.03
2023-09-08T05:45:26.062Z,17.05
2023-09-08T05:46:26.181Z,17.09
2023-09-08T05:47:26.237Z,17.17
2023-09-08T05:48:25.980Z,17.23
2023-09-08T05:49:26.031Z,17.27
2023-09-08T05:50:25.973Z,17.30
2023-09-08T05:51:25.979Z,17.33
2023-09-08T05:52:25.982Z,17.34
2023-09-08T05:53:25.965Z,17.38
2023-09-08T05:54:25.939Z,17.44
2023-09-08T05:55:27.124Z,17.45
2023-09-08T05:56:28.712Z,17.42
2023-09-08T05:57:27.177Z,17.43
2023-09-08T05:58:30.403Z,17.48
2023-09-08T05:59:28.898Z,17.50
2023-09-08T06:00:25.864Z,17.52
2023-09-08T06:01:25.892Z,17.54
2023-09-08T06:02:25.882Z,17.55
2023-09-08T06:03:25.974Z,17.56
2023-09-08T06:04:26.064Z,17.60
2023-09-08T06:05:25.810Z,17.66
2023-09-08T06:06:25.819Z,17.70
2023-09-08T06:07:25.801Z,17.72
2023-09-08T06:08:25.795Z,17.75
2023-09-08T06:09:25.785Z,17.79
2023-09-08T06:10:25.753Z,17.85
2023-09-08T06:11:25.738Z,17.96
2023-09-08T06:12:25.788Z,18.03
2023-09-08T06:13:25.720Z,18.02
2023-09-08T06:14:25.719Z,18.02
2023-09-08T06:15:25.734Z,18.02
2023-09-08T06:16:25.712Z,18.02
2023-09-08T06:17:25.733Z,18.03
2023-09-08T06:18:25.700Z,18.02
2023-09-08T06:19:25.676Z,17.99
2023-09-08T06:20:25.668Z,18.03
2023-09-08T06:21:25.668Z,18.07
2023-09-08T06:22:25.634Z,18.08
2023-09-08T06:23:25.688Z,18.14
2023-09-08T06:24:25.616Z,18.24
2023-09-08T06:25:25.613Z,18.33
2023-09-08T06:26:25.642Z,18.39
2023-09-08T06:27:25.592Z,18.43
2023-09-08T06:28:25.625Z,18.47
2023-09-08T06:29:25.544Z,18.50
2023-09-08T06:30:25.541Z,18.53
2023-09-08T06:31:25.717Z,18.56
2023-09-08T06:32:25.760Z,18.58
2023-09-08T06:33:26.097Z,18.62
2023-09-08T06:34:25.708Z,18.64
2023-09-08T06:35:25.499Z,18.65
2023-09-08T06:36:25.466Z,18.67
2023-09-08T06:37:25.464Z,18.70
2023-09-08T06:38:25.453Z,18.76
2023-09-08T06:39:25.485Z,18.81
2023-09-08T06:40:25.437Z,18.83
2023-09-08T06:41:25.435Z,18.85
2023-09-08T06:42:25.452Z,18.88
2023-09-08T06:43:25.411Z,18.91
2023-09-08T06:44:25.384Z,18.95
2023-09-08T06:45:25.378Z,19.00
2023-09-08T06:46:25.366Z,19.05
2023-09-08T06:47:25.365Z,19.09
2023-09-08T06:48:25.427Z,19.13
2023-09-08T06:49:25.339Z,19.17
2023-09-08T06:50:25.340Z,19.21
2023-09-08T06:51:25.324Z,19.26
2023-09-08T06:52:25.310Z,19.29
2023-09-08T06:53:25.294Z,19.31
2023-09-08T06:54:25.283Z,19.35
2023-09-08T06:55:25.276Z,19.42
2023-09-08T06:56:25.272Z,19.47
2023-09-08T06:57:25.302Z,19.51
2023-09-08T06:58:25.233Z,19.51
2023-09-08T06:59:25.227Z,19.53
2023-09-08T07:00:25.235Z,19.57
2023-09-08T07:01:25.316Z,19.62
2023-09-08T07:02:25.239Z,19.68
2023-09-08T07:03:25.342Z,19.71
2023-09-08T07:04:25.215Z,19.74
2023-09-08T07:05:25.182Z,19.82
2023-09-08T07:06:25.150Z,19.89
2023-09-08T07:07:25.166Z,19.96
2023-09-08T07:08:25.130Z,20.03
2023-09-08T07:09:25.127Z,20.08
2023-09-08T07:10:25.130Z,20.14
2023-09-08T07:11:25.103Z,20.20
2023-09-08T07:12:25.105Z,20.27
2023-09-08T07:13:25.171Z,20.34
2023-09-08T07:14:25.060Z,20.42
2023-09-08T07:15:25.056Z,20.49
2023-09-08T07:16:25.133Z,20.56
2023-09-08T07:17:25.105Z,20.63
2023-09-08T07:18:25.017Z,20.69
2023-09-08T07:19:25.039Z,20.77
2023-09-08T07:20:24.995Z,20.84
2023-09-08T07:21:24.980Z,20.90
2023-09-08T07:22:24.976Z,20.95
2023-09-08T07:23:24.978Z,21.00
2023-09-08T07:24:24.961Z,21.07
2023-09-08T07:25:24.935Z,21.17
2023-09-08T07:26:24.942Z,21.28
2023-09-08T07:27:24.909Z,21.38
2023-09-08T07:28:24.917Z,21.47
2023-09-08T07:29:24.916Z,21.57
2023-09-08T07:30:24.977Z,21.66
2023-09-08T07:31:25.061Z,21.73
2023-09-08T07:32:24.870Z,21.79
2023-09-08T07:33:24.879Z,21.84
2023-09-08T07:34:24.848Z,21.89
2023-09-08T07:35:24.852Z,21.94
2023-09-08T07:36:24.864Z,22.00
2023-09-08T07:37:24.805Z,22.04
2023-09-08T07:38:24.810Z,22.10
2023-09-08T07:39:24.809Z,22.17
2023-09-08T07:40:24.777Z,22.25
2023-09-08T07:41:24.805Z,22.36
2023-09-08T07:42:24.765Z,22.49
2023-09-08T07:43:24.824Z,22.59
2023-09-08T07:44:24.741Z,22.64
2023-09-08T07:45:24.762Z,22.70
2023-09-08T07:46:24.794Z,22.76
2023-09-08T07:47:24.732Z,22.82
2023-09-08T07:48:24.813Z,22.88
2023-09-08T07:49:24.818Z,22.97
2023-09-08T07:50:24.696Z,23.05
2023-09-08T07:51:24.659Z,23.15
2023-09-08T07:52:24.652Z,23.27
2023-09-08T07:53:24.666Z,23.36
2023-09-08T07:54:24.665Z,23.43
2023-09-08T07:55:24.728Z,23.49
2023-09-08T07:56:24.656Z,23.55
2023-09-08T07:57:24.616Z,23.61
2023-09-08T07:58:24.645Z,23.67
2023-09-08T07:59:24.733Z,23.74
2023-09-08T08:00:24.587Z,23.80
2023-09-08T08:01:24.594Z,23.85
2023-09-08T08:02:24.607Z,23.97
2023-09-08T08:03:24.637Z,24.08
2023-09-08T08:04:24.649Z,24.11
2023-09-08T08:05:24.582Z,24.13
2023-09-08T08:06:24.495Z,24.20
2023-09-08T08:07:24.505Z,24.36
2023-09-08T08:08:24.512Z,24.52
2023-09-08T08:09:24.483Z,24.60
2023-09-08T08:10:24.484Z,24.63
2023-09-08T08:11:24.480Z,24.64
2023-09-08T08:12:24.434Z,24.67
2023-09-08T08:13:24.478Z,24.74
2023-09-08T08:14:24.438Z,24.88
2023-09-08T08:15:24.522Z,25.02
2023-09-08T08:16:24.440Z,25.17
2023-09-08T08:17:24.409Z,25.31
2023-09-08T08:18:24.438Z,25.35
2023-09-08T08:19:27.243Z,25.37
2023-09-08T08:20:24.442Z,25.47
2023-09-08T08:21:24.374Z,25.63
2023-09-08T08:22:24.340Z,25.72
2023-09-08T08:23:24.319Z,25.79
2023-09-08T08:24:24.349Z,25.88
2023-09-08T08:25:24.313Z,25.97
2023-09-08T08:26:24.308Z,26.06
2023-09-08T08:27:24.315Z,26.08
2023-09-08T08:28:24.269Z,26.09
2023-09-08T08:29:24.265Z,26.15
2023-09-08T08:30:24.300Z,26.19
2023-09-08T08:31:24.255Z,26.27
2023-09-08T08:32:24.243Z,26.38
2023-09-08T08:33:24.278Z,26.38
2023-09-08T08:34:24.208Z,26.36
2023-09-08T08:35:24.185Z,26.40
2023-09-08T08:36:24.223Z,26.52
2023-09-08T08:37:24.179Z,26.72
2023-09-08T08:38:24.182Z,26.86
2023-09-08T08:39:24.142Z,26.97
2023-09-08T08:40:24.129Z,27.05
2023-09-08T08:41:24.150Z,27.12
2023-09-08T08:42:24.118Z,27.26
2023-09-08T08:43:24.147Z,27.43
2023-09-08T08:44:24.090Z,27.57
2023-09-08T08:45:24.107Z,27.71
2023-09-08T08:46:24.208Z,27.78
2023-09-08T08:47:24.082Z,27.85
2023-09-08T08:48:24.101Z,27.92
2023-09-08T08:49:24.054Z,27.97
2023-09-08T08:50:26.126Z,28.08
2023-09-08T08:51:24.139Z,28.18
2023-09-08T08:52:24.009Z,28.19
2023-09-08T08:53:24.002Z,28.21
2023-09-08T08:54:24.033Z,28.29
2023-09-08T08:55:24.004Z,28.40
2023-09-08T08:56:23.984Z,28.54
2023-09-08T08:57:24.051Z,28.62
2023-09-08T08:58:23.985Z,28.65
2023-09-08T08:59:24.058Z,28.66
2023-09-08T09:00:24.046Z,28.69
2023-09-08T09:01:23.914Z,28.72
2023-09-08T09:02:23.941Z,28.76
2023-09-08T09:03:23.958Z,28.77
2023-09-08T09:04:23.974Z,28.79
2023-09-08T09:05:23.930Z,28.77
2023-09-08T09:06:23.896Z,28.66
2023-09-08T09:07:23.931Z,28.56
2023-09-08T09:08:23.877Z,28.57
2023-09-08T09:09:23.875Z,28.61
2023-09-08T09:10:23.849Z,28.68
2023-09-08T09:11:23.850Z,28.77
2023-09-08T09:12:23.808Z,28.83
2023-09-08T09:13:23.793Z,28.89
2023-09-08T09:14:23.811Z,28.90
2023-09-08T09:15:23.818Z,28.82
2023-09-08T09:16:23.784Z,28.76
2023-09-08T09:17:23.810Z,28.76
2023-09-08T09:18:23.835Z,28.72
2023-09-08T09:19:23.728Z,28.69
2023-09-08T09:20:23.719Z,28.73
2023-09-08T09:21:23.716Z,28.74
2023-09-08T09:22:23.735Z,28.74
2023-09-08T09:23:23.712Z,28.77
2023-09-08T09:24:23.774Z,28.87
2023-09-08T09:25:23.852Z,29.02
2023-09-08T09:26:23.663Z,29.18
2023-09-08T09:27:23.716Z,29.27
2023-09-08T09:28:23.654Z,29.30
2023-09-08T09:29:23.620Z,29.38
2023-09-08T09:30:23.708Z,29.48
2023-09-08T09:31:23.604Z,29.50
2023-09-08T09:32:23.628Z,29.46
2023-09-08T09:33:23.612Z,29.48
2023-09-08T09:34:23.592Z,29.57
2023-09-08T09:35:23.564Z,29.61
2023-09-08T09:36:23.555Z,29.68
2023-09-08T09:37:23.596Z,29.78
2023-09-08T09:38:23.534Z,29.83
2023-09-08T09:39:23.521Z,29.81
2023-09-08T09:40:23.714Z,29.80
2023-09-08T09:41:23.707Z,29.86
2023-09-08T09:42:23.515Z,29.96
2023-09-08T09:43:23.564Z,30.09
2023-09-08T09:44:23.461Z,30.26
2023-09-08T09:45:23.510Z,30.46
2023-09-08T09:46:23.473Z,30.66
2023-09-08T09:47:23.446Z,30.86
2023-09-08T09:48:23.459Z,31.06
2023-09-08T09:49:23.449Z,31.15
2023-09-08T09:50:23.415Z,31.25
2023-09-08T09:51:23.382Z,31.44
2023-09-08T09:52:23.427Z,31.71
2023-09-08T09:53:23.420Z,31.93
2023-09-08T09:54:23.393Z,32.11
2023-09-08T09:55:23.344Z,32.21
2023-09-08T09:56:23.340Z,32.27
2023-09-08T09:57:23.326Z,32.26
2023-09-08T09:58:23.355Z,32.20
2023-09-08T09:59:23.392Z,32.25
2023-09-08T10:00:23.305Z,32.40
2023-09-08T10:01:23.409Z,32.50
2023-09-08T10:02:23.749Z,32.44
2023-09-08T10:03:23.363Z,32.40
2023-09-08T10:04:23.253Z,32.52
2023-09-08T10:05:23.274Z,32.76
2023-09-08T10:06:23.311Z,33.05
2023-09-08T10:07:23.229Z,33.12
2023-09-08T10:08:23.270Z,32.98
2023-09-08T10:09:23.246Z,32.84
2023-09-08T10:10:23.198Z,32.81
2023-09-08T10:11:23.179Z,32.77
2023-09-08T10:12:23.268Z,32.86
2023-09-08T10:13:23.234Z,33.07
2023-09-08T10:14:23.149Z,33.27
2023-09-08T10:15:23.258Z,33.44
2023-09-08T10:16:23.156Z,33.37
2023-09-08T10:17:23.132Z,33.04
2023-09-08T10:18:23.222Z,32.81
2023-09-08T10:19:23.157Z,32.88
2023-09-08T10:20:23.119Z,33.23
2023-09-08T10:21:23.082Z,33.53
2023-09-08T10:22:23.086Z,33.72
2023-09-08T10:23:23.084Z,33.77
2023-09-08T10:24:23.194Z,33.72
2023-09-08T10:25:23.036Z,33.72
2023-09-08T10:26:23.046Z,33.74
2023-09-08T10:27:23.046Z,33.37
2023-09-08T10:28:23.012Z,32.75
2023-09-08T10:29:23.018Z,32.38
2023-09-08T10:30:23.107Z,32.44
2023-09-08T10:31:22.998Z,32.68
2023-09-08T10:32:23.041Z,32.86
2023-09-08T10:33:22.968Z,33.09
2023-09-08T10:34:22.967Z,33.44
2023-09-08T10:35:22.945Z,33.87
2023-09-08T10:36:22.936Z,34.17
2023-09-08T10:37:22.921Z,34.25
2023-09-08T10:38:22.912Z,34.19
2023-09-08T10:39:22.920Z,34.12
2023-09-08T10:40:22.884Z,34.14
2023-09-08T10:41:22.871Z,34.08
2023-09-08T10:42:22.902Z,33.87
2023-09-08T10:43:22.850Z,33.71
2023-09-08T10:44:22.911Z,33.63
2023-09-08T10:45:22.888Z,33.61
2023-09-08T10:46:22.852Z,33.65
2023-09-08T10:47:22.807Z,33.75
2023-09-08T10:48:22.811Z,33.99
2023-09-08T10:49:22.777Z,34.36
2023-09-08T10:50:22.808Z,34.54
2023-09-08T10:51:22.775Z,34.55
2023-09-08T10:52:22.836Z,34.63
2023-09-08T10:53:22.762Z,34.74
2023-09-08T10:54:22.759Z,34.79
2023-09-08T10:55:22.722Z,34.71
2023-09-08T10:56:22.759Z,34.75
2023-09-08T10:57:22.715Z,35.08
2023-09-08T10:58:22.733Z,35.40
2023-09-08T10:59:22.787Z,35.47
2023-09-08T11:00:22.712Z,35.35
2023-09-08T11:01:22.717Z,35.05
2023-09-08T11:02:22.707Z,34.69
2023-09-08T11:03:22.792Z,34.61
2023-09-08T11:04:22.731Z,34.62
2023-09-08T11:05:22.624Z,34.41
2023-09-08T11:06:22.660Z,34.15
2023-09-08T11:07:22.608Z,34.07
2023-09-08T11:08:22.680Z,34.21
2023-09-08T11:09:22.603Z,34.43
2023-09-08T11:10:22.579Z,34.66
2023-09-08T11:11:22.629Z,34.78
2023-09-08T11:12:22.567Z,34.43
2023-09-08T11:13:22.600Z,33.98
2023-09-08T11:14:22.619Z,33.85
2023-09-08T11:15:22.546Z,33.99
2023-09-08T11:16:22.809Z,34.28
2023-09-08T11:17:22.585Z,34.59
2023-09-08T11:18:22.646Z,35.04
2023-09-08T11:19:22.764Z,35.57
2023-09-08T11:20:22.549Z,35.99
2023-09-08T11:21:22.551Z,36.11
2023-09-08T11:22:31.441Z,35.96
2023-09-08T11:23:22.451Z,35.62
2023-09-08T11:24:22.645Z,35.38
2023-09-08T11:25:22.433Z,35.44
2023-09-08T11:26:22.513Z,35.53
2023-09-08T11:27:22.438Z,35.75
2023-09-08T11:28:22.447Z,35.59
2023-09-08T11:29:22.409Z,35.38
2023-09-08T11:30:22.383Z,35.41
2023-09-08T11:31:23.457Z,35.43
2023-09-08T11:32:22.380Z,35.51
2023-09-08T11:33:22.364Z,35.53
2023-09-08T11:34:22.349Z,35.59
2023-09-08T11:35:22.319Z,35.49
2023-09-08T11:36:22.328Z,35.38
2023-09-08T11:37:22.314Z,35.70
2023-09-08T11:38:22.304Z,36.18
2023-09-08T11:39:22.310Z,36.43
2023-09-08T11:40:22.310Z,36.49
2023-09-08T11:41:22.388Z,36.29
2023-09-08T11:42:22.283Z,36.19
2023-09-08T11:43:22.554Z,36.24
2023-09-08T11:44:22.348Z,35.98
2023-09-08T11:45:22.269Z,35.53
2023-09-08T11:46:22.257Z,35.37
2023-09-08T11:47:22.270Z,35.24
2023-09-08T11:48:22.214Z,34.66
2023-09-08T11:49:22.215Z,34.04
2023-09-08T11:50:22.185Z,33.81
2023-09-08T11:51:22.170Z,33.66
2023-09-08T11:52:22.166Z,33.42
2023-09-08T11:53:22.148Z,33.28
2023-09-08T11:54:22.156Z,33.35
2023-09-08T11:55:22.172Z,33.41
2023-09-08T11:56:22.120Z,33.57
2023-09-08T11:57:22.133Z,33.92
2023-09-08T11:58:22.148Z,34.24
2023-09-08T11:59:22.092Z,34.57
2023-09-08T12:00:22.079Z,34.83
2023-09-08T12:01:22.139Z,34.80
2023-09-08T12:02:22.152Z,34.73
2023-09-08T12:03:22.079Z,34.72
2023-09-08T12:04:22.037Z,34.62
2023-09-08T12:05:22.260Z,34.32
2023-09-08T12:06:22.030Z,33.97
2023-09-08T12:07:22.009Z,33.66
2023-09-08T12:08:22.034Z,33.30
2023-09-08T12:09:22.013Z,32.97
2023-09-08T12:10:22.136Z,32.71
2023-09-08T12:11:22.002Z,32.42
2023-09-08T12:12:21.950Z,32.15
2023-09-08T12:13:21.975Z,32.04
2023-09-08T12:14:21.943Z,31.87
2023-09-08T12:15:21.917Z,31.60
2023-09-08T12:16:22.013Z,31.38
2023-09-08T12:17:22.534Z,31.15
2023-09-08T12:18:21.891Z,30.88
2023-09-08T12:19:21.947Z,30.69
2023-09-08T12:20:21.849Z,30.58
2023-09-08T12:21:21.891Z,30.52
2023-09-08T12:22:21.854Z,30.47
2023-09-08T12:23:21.854Z,30.38
2023-09-08T12:24:21.819Z,30.34
2023-09-08T12:25:21.813Z,30.35
2023-09-08T12:26:21.790Z,30.28
2023-09-08T12:27:21.806Z,30.21
2023-09-08T12:28:21.979Z,30.14
2023-09-08T12:29:21.779Z,30.05
2023-09-08T12:30:21.748Z,30.00
2023-09-08T12:31:21.856Z,29.99
2023-09-08T12:32:21.780Z,29.96
2023-09-08T12:33:22.269Z,29.90
2023-09-08T12:34:21.846Z,29.86
2023-09-08T12:35:21.713Z,29.84
2023-09-08T12:36:21.699Z,29.83
2023-09-08T12:37:21.734Z,29.81
2023-09-08T12:38:21.722Z,29.77
2023-09-08T12:39:21.660Z,29.72
2023-09-08T12:40:21.692Z,29.66
2023-09-08T12:41:21.656Z,29.57
2023-09-08T12:42:21.632Z,29.53
2023-09-08T12:43:26.922Z,29.59
2023-09-08T12:44:21.634Z,29.68
2023-09-08T12:45:21.576Z,29.71
2023-09-08T12:46:21.630Z,29.70
2023-09-08T12:47:21.573Z,29.68
2023-09-08T12:48:21.548Z,29.65
2023-09-08T12:49:21.582Z,29.68
2023-09-08T12:50:21.553Z,29.71
2023-09-08T12:51:21.526Z,29.69
2023-09-08T12:52:21.561Z,29.64